Time;durP1;ratioP1;P1;durP2;ratioP2;P2;SDS_P1;SDS_P2;PMS_P1;PMS_P2;Temp;Humidity;BMP_temperature;BMP_pressure;BME280_temperature;BME280_humidity;BME280_pressure;Samples;Min_cycle;Max_cycle;Signal;HPM_P1;HPM_P2
2022/04/30 00:00:16;;;;;;;;;;;12.30;99.00;;;;;;5113721;28;20287;-72
2022/04/30 00:02:41;;;;;;;;;;;12.30;99.20;;;;;;5113546;28;19915;-72
2022/04/30 00:05:07;;;;;;;;;;;12.30;99.30;;;;;;5114008;28;19911;-72
2022/04/30 00:07:32;;;;;;;;;;;12.30;99.10;;;;;;5114428;28;19916;-72
2022/04/30 00:09:58;;;;;;;;;;;12.30;98.90;;;;;;5095599;28;19908;-72
2022/04/30 00:12:25;;;;;;;;;;;12.30;99.00;;;;;;5113936;28;19977;-72
2022/04/30 00:14:50;;;;;;;;;;;12.30;98.90;;;;;;5113688;28;19958;-72
2022/04/30 00:17:16;;;;;;;;;;;12.30;98.70;;;;;;5114193;28;20363;-72
2022/04/30 00:19:42;;;;;;;;;;;12.30;98.60;;;;;;5113710;28;19907;-72
2022/04/30 00:22:08;;;;;;;;;;;12.20;99.20;;;;;;5113986;28;19959;-72
2022/04/30 00:24:35;;;;;;;;;;;12.20;99.30;;;;;;5095136;28;19912;-73
2022/04/30 00:27:01;;;;;;;;;;;12.20;99.70;;;;;;5113794;28;19916;-72
2022/04/30 00:29:29;;;;;;;;;;;12.10;99.80;;;;;;5113539;28;19915;-72
2022/04/30 00:31:55;;;;;;;;;;;12.20;99.00;;;;;;5094951;28;19919;-72
2022/04/30 00:34:20;;;;;;;;;;;12.20;98.90;;;;;;5095132;28;19912;-72
2022/04/30 00:36:46;;;;;;;;;;;12.20;99.50;;;;;;5113560;28;19915;-72
2022/04/30 00:39:11;;;;;;;;;;;12.20;99.90;;;;;;5113629;28;20035;-72
2022/04/30 00:41:43;;;;;;;;;;;12.20;99.50;;;;;;5113542;28;19964;-72
2022/04/30 00:44:08;;;;;;;;;;;12.10;99.70;;;;;;5094944;28;20382;-72
2022/04/30 00:46:34;;;;;;;;;;;12.10;99.90;;;;;;5113091;28;20269;-72
2022/04/30 00:49:01;;;;;;;;;;;12.10;99.90;;;;;;5113014;28;20368;-73
2022/04/30 00:51:27;;;;;;;;;;;12.10;99.90;;;;;;5113111;28;19918;-73
2022/04/30 00:53:54;;;;;;;;;;;12.10;99.90;;;;;;5112870;28;20430;-72
2022/04/30 00:56:43;;;;;;;;;;;11.90;99.90;;;;;;5112861;28;20148;-72
2022/04/30 00:59:09;;;;;;;;;;;12.10;99.90;;;;;;5102571;28;20010;-72
2022/04/30 01:01:35;;;;;;;;;;;12.10;99.90;;;;;;5112800;28;19954;-72
2022/04/30 01:04:01;;;;;;;;;;;12.00;99.90;;;;;;5112760;28;19918;-72
2022/04/30 01:06:39;;;;;;;;;;;12.00;99.90;;;;;;5112769;28;19927;-72
2022/04/30 01:09:04;;;;;;;;;;;11.90;99.90;;;;;;5094111;28;19923;-72
2022/04/30 01:11:30;;;;;;;;;;;11.90;99.90;;;;;;5094045;28;19916;-72
2022/04/30 01:13:58;;;;;;;;;;;11.90;99.90;;;;;;5111856;28;19955;-72
2022/04/30 01:16:25;;;;;;;;;;;11.90;99.90;;;;;;5112457;28;20387;-72
2022/04/30 01:18:50;;;;;;;;;;;11.90;99.90;;;;;;5094188;28;19927;-73
2022/04/30 01:21:18;;;;;;;;;;;11.90;99.90;;;;;;5112644;28;20322;-73
2022/04/30 01:23:44;;;;;;;;;;;11.80;99.90;;;;;;5112536;28;20366;-73
2022/04/30 01:26:10;;;;;;;;;;;11.80;99.90;;;;;;5112520;28;19922;-73
2022/04/30 01:28:37;;;;;;;;;;;11.80;99.90;;;;;;5094234;28;19943;-73
2022/04/30 01:31:03;;;;;;;;;;;11.80;99.90;;;;;;5112301;28;19919;-73
2022/04/30 01:39:07;;;;;;;;;;;11.60;99.90;;;;;;5112408;28;19961;-73
2022/04/30 01:41:32;;;;;;;;;;;11.60;99.90;;;;;;5112173;28;19916;-73
2022/04/30 01:43:59;;;;;;;;;;;11.60;99.90;;;;;;5093757;28;19918;-73
2022/04/30 01:46:25;;;;;;;;;;;11.60;99.90;;;;;;5093874;28;20367;-72
2022/04/30 01:48:50;;;;;;;;;;;11.50;99.90;;;;;;5112048;28;20002;-73
2022/04/30 01:51:16;;;;;;;;;;;11.30;99.90;;;;;;5112282;28;20302;-72
2022/04/30 01:53:42;;;;;;;;;;;11.30;99.90;;;;;;5093619;28;19951;-73
2022/04/30 01:56:07;;;;;;;;;;;11.30;99.90;;;;;;5112018;28;20007;-73
2022/04/30 01:58:34;;;;;;;;;;;11.20;99.90;;;;;;5111758;28;19956;-73
2022/04/30 02:01:00;;;;;;;;;;;11.20;99.90;;;;;;5093510;28;19916;-73
2022/04/30 02:03:27;;;;;;;;;;;11.20;99.90;;;;;;5112017;28;19915;-72
2022/04/30 02:05:53;;;;;;;;;;;11.20;99.90;;;;;;5111759;28;19919;-72
2022/04/30 02:08:20;;;;;;;;;;;11.20;99.90;;;;;;5111747;28;19912;-73
2022/04/30 02:10:46;;;;;;;;;;;11.20;99.90;;;;;;5093373;28;19932;-72
2022/04/30 02:13:13;;;;;;;;;;;11.20;99.90;;;;;;5093095;28;20672;-72
2022/04/30 02:15:40;;;;;;;;;;;11.30;99.90;;;;;;5093203;28;19938;-73
2022/04/30 02:18:06;;;;;;;;;;;11.30;99.90;;;;;;5093208;28;19957;-72
2022/04/30 02:20:37;;;;;;;;;;;11.30;99.90;;;;;;5111670;28;20340;-72
2022/04/30 02:23:04;;;;;;;;;;;11.30;99.90;;;;;;5111575;28;19911;-73
2022/04/30 02:25:30;;;;;;;;;;;11.30;99.90;;;;;;5112165;28;19919;-72
2022/04/30 02:27:58;;;;;;;;;;;11.30;99.90;;;;;;5097373;28;19907;-73
2022/04/30 02:30:24;;;;;;;;;;;11.20;99.90;;;;;;5115724;28;20002;-73
2022/04/30 02:32:49;;;;;;;;;;;11.20;99.90;;;;;;5115663;28;19912;-72
2022/04/30 02:35:15;;;;;;;;;;;11.20;99.90;;;;;;5115668;28;20277;-71
2022/04/30 02:37:44;;;;;;;;;;;11.20;99.90;;;;;;5115512;28;19912;-72
2022/04/30 02:40:11;;;;;;;;;;;10.40;99.90;;;;;;5097210;28;19915;-72
2022/04/30 02:42:38;;;;;;;;;;;11.20;99.90;;;;;;5115432;28;19923;-72
2022/04/30 02:45:04;;;;;;;;;;;11.30;99.90;;;;;;5115578;28;19918;-73
2022/04/30 02:47:30;;;;;;;;;;;11.30;99.90;;;;;;5097180;28;20411;-72
2022/04/30 02:49:55;;;;;;;;;;;11.20;99.90;;;;;;5115315;28;19962;-72
2022/04/30 02:52:21;;;;;;;;;;;11.30;99.90;;;;;;5115747;28;20276;-72
2022/04/30 02:54:46;;;;;;;;;;;11.30;99.90;;;;;;5096775;28;19919;-72
2022/04/30 02:57:12;;;;;;;;;;;11.30;99.90;;;;;;5115487;28;19916;-71
2022/04/30 02:59:57;;;;;;;;;;;11.30;99.90;;;;;;5114996;28;19922;-72
2022/04/30 03:02:22;;;;;;;;;;;11.30;99.90;;;;;;5115502;28;19915;-71
2022/04/30 03:04:52;;;;;;;;;;;11.30;99.90;;;;;;5114840;28;20380;-72
2022/04/30 03:07:22;;;;;;;;;;;11.20;99.90;;;;;;5115305;28;19978;-72
2022/04/30 03:09:49;;;;;;;;;;;11.20;99.90;;;;;;5114883;28;19908;-72
2022/04/30 03:12:14;;;;;;;;;;;11.20;99.90;;;;;;5115012;28;20297;-71
2022/04/30 03:14:41;;;;;;;;;;;11.30;99.90;;;;;;5114711;28;19915;-72
2022/04/30 03:22:35;;;;;;;;;;;11.30;99.90;;;;;;5115314;28;19988;-72
2022/04/30 03:25:00;;;;;;;;;;;11.40;99.90;;;;;;5114554;28;20356;-72
2022/04/30 03:27:26;;;;;;;;;;;12.40;99.90;;;;;;5114943;28;19923;-73
2022/04/30 03:29:51;;;;;;;;;;;11.40;99.90;;;;;;5114884;28;19907;-73
2022/04/30 03:32:17;;;;;;;;;;;11.30;99.90;;;;;;5114833;28;20355;-72
2022/04/30 03:34:43;;;;;;;;;;;11.40;99.90;;;;;;5114547;28;19918;-72
2022/04/30 03:37:08;;;;;;;;;;;11.40;99.90;;;;;;5095131;28;20386;-73
2022/04/30 03:39:33;;;;;;;;;;;11.40;99.90;;;;;;5114299;28;19919;-72
2022/04/30 03:41:59;;;;;;;;;;;11.40;99.90;;;;;;5114658;28;19945;-73
2022/04/30 03:44:25;;;;;;;;;;;11.40;99.90;;;;;;5114301;28;19908;-71
2022/04/30 03:46:51;;;;;;;;;;;11.40;99.90;;;;;;5114507;28;19916;-71
2022/04/30 03:49:16;;;;;;;;;;;11.50;99.90;;;;;;5114139;28;19912;-72
2022/04/30 03:51:42;;;;;;;;;;;11.40;99.90;;;;;;5114754;28;19916;-72
2022/04/30 03:54:08;;;;;;;;;;;11.50;99.90;;;;;;5095539;28;20162;-72
2022/04/30 03:56:33;;;;;;;;;;;11.50;99.90;;;;;;5114319;28;20046;-72
2022/04/30 03:58:59;;;;;;;;;;;11.50;99.90;;;;;;5113983;28;20367;-72
2022/04/30 04:01:24;;;;;;;;;;;11.50;99.90;;;;;;5114262;28;19916;-72
2022/04/30 04:03:50;;;;;;;;;;;11.50;99.90;;;;;;5113729;28;19912;-72
2022/04/30 04:06:16;;;;;;;;;;;11.60;99.90;;;;;;5113919;28;19977;-73
2022/04/30 04:08:42;;;;;;;;;;;11.60;99.90;;;;;;5113695;28;19943;-72
2022/04/30 04:11:10;;;;;;;;;;;11.60;99.90;;;;;;5113983;28;20020;-72
2022/04/30 04:19:04;;;;;;;;;;;11.60;99.90;;;;;;5113904;28;19927;-72
2022/04/30 04:21:30;;;;;;;;;;;11.60;99.90;;;;;;5113795;28;19915;-72
2022/04/30 04:26:40;;;;;;;;;;;11.50;99.90;;;;;;5113765;28;19927;-72
2022/04/30 04:29:05;;;;;;;;;;;11.60;99.90;;;;;;5094942;28;19908;-71
2022/04/30 04:31:31;;;;;;;;;;;11.50;99.90;;;;;;5113622;28;20268;-72
2022/04/30 04:33:56;;;;;;;;;;;11.50;99.90;;;;;;5113154;28;19952;-73
2022/04/30 04:36:22;;;;;;;;;;;11.40;99.90;;;;;;5113416;28;19919;-72
2022/04/30 04:38:48;;;;;;;;;;;11.50;99.90;;;;;;5113136;28;19915;-72
2022/04/30 04:41:13;;;;;;;;;;;11.50;99.90;;;;;;5113240;28;19926;-72
2022/04/30 04:43:39;;;;;;;;;;;11.60;99.90;;;;;;5094774;28;20229;-72
2022/04/30 04:46:04;;;;;;;;;;;11.60;99.90;;;;;;5094640;28;20352;-72
2022/04/30 04:48:31;;;;;;;;;;;11.60;99.90;;;;;;5113025;28;19908;-72
2022/04/30 04:50:57;;;;;;;;;;;11.60;99.90;;;;;;5113048;28;20023;-72
2022/04/30 04:53:22;;;;;;;;;;;11.60;99.90;;;;;;5112948;28;19999;-72
2022/04/30 04:55:48;;;;;;;;;;;11.60;99.90;;;;;;5112724;28;19988;-71
2022/04/30 04:58:14;;;;;;;;;;;11.60;99.90;;;;;;5112765;28;19915;-72
2022/04/30 05:00:39;;;;;;;;;;;11.60;99.90;;;;;;5112647;28;19922;-72
2022/04/30 05:03:05;;;;;;;;;;;11.60;99.90;;;;;;5112719;28;20010;-73
2022/04/30 05:05:30;;;;;;;;;;;11.60;99.90;;;;;;5112613;28;19924;-72
2022/04/30 05:07:56;;;;;;;;;;;11.60;99.90;;;;;;5112553;28;19955;-72
2022/04/30 05:10:21;;;;;;;;;;;11.60;99.90;;;;;;5112557;28;20368;-72
2022/04/30 05:12:47;;;;;;;;;;;11.50;99.90;;;;;;5112420;28;19915;-72
2022/04/30 05:15:12;;;;;;;;;;;11.60;99.90;;;;;;5112245;28;19931;-72
2022/04/30 05:17:38;;;;;;;;;;;11.60;99.90;;;;;;5112706;28;19992;-72
2022/04/30 05:20:04;;;;;;;;;;;11.50;99.90;;;;;;5112416;28;19922;-72
2022/04/30 05:22:30;;;;;;;;;;;11.50;99.90;;;;;;5112829;28;19919;-73
2022/04/30 05:24:55;;;;;;;;;;;11.50;99.90;;;;;;5094054;28;20279;-71
2022/04/30 05:27:21;;;;;;;;;;;11.50;99.90;;;;;;5094007;28;19915;-71
2022/04/30 05:29:46;;;;;;;;;;;11.50;99.90;;;;;;5112029;28;19908;-71
2022/04/30 05:32:12;;;;;;;;;;;11.50;99.90;;;;;;5112126;28;19916;-71
2022/04/30 05:34:38;;;;;;;;;;;11.50;99.90;;;;;;5111999;28;20359;-71
2022/04/30 05:37:03;;;;;;;;;;;11.60;99.90;;;;;;5112331;28;19962;-71
2022/04/30 05:39:29;;;;;;;;;;;11.60;99.90;;;;;;5112024;28;19955;-71
2022/04/30 05:41:54;;;;;;;;;;;11.70;99.90;;;;;;5093733;28;19915;-71
2022/04/30 05:44:20;;;;;;;;;;;11.80;99.90;;;;;;5112242;28;20361;-72
2022/04/30 05:46:45;;;;;;;;;;;11.90;99.90;;;;;;5093616;28;20271;-72
2022/04/30 05:49:11;;;;;;;;;;;12.00;99.90;;;;;;5111960;28;19907;-71
2022/04/30 05:51:36;;;;;;;;;;;12.00;99.90;;;;;;5111982;28;20293;-72
2022/04/30 05:54:02;;;;;;;;;;;12.10;99.90;;;;;;5111827;28;20027;-71
2022/04/30 05:56:27;;;;;;;;;;;12.10;99.90;;;;;;5111788;28;19924;-71
2022/04/30 05:58:53;;;;;;;;;;;12.20;99.90;;;;;;5111681;28;19911;-71
2022/04/30 06:01:18;;;;;;;;;;;12.20;99.90;;;;;;5111392;28;19915;-71
2022/04/30 06:03:44;;;;;;;;;;;12.20;99.90;;;;;;5111649;28;20406;-72
2022/04/30 06:06:10;;;;;;;;;;;13.10;99.90;;;;;;5111390;28;19920;-71
2022/04/30 06:08:35;;;;;;;;;;;12.30;99.90;;;;;;5093570;28;19998;-72
2022/04/30 06:11:01;;;;;;;;;;;12.40;99.90;;;;;;5111553;28;20053;-72
2022/04/30 06:13:26;;;;;;;;;;;12.40;99.90;;;;;;5111554;28;20256;-71
2022/04/30 06:15:52;;;;;;;;;;;12.50;99.90;;;;;;5111610;28;20018;-72
2022/04/30 06:18:20;;;;;;;;;;;12.40;99.90;;;;;;5111597;28;20359;-73
2022/04/30 06:20:45;;;;;;;;;;;12.70;99.90;;;;;;5111553;28;20370;-73
2022/04/30 06:23:15;;;;;;;;;;;12.80;99.90;;;;;;5111646;28;19912;-71
2022/04/30 06:25:41;;;;;;;;;;;12.80;99.90;;;;;;5111453;28;19955;-72
2022/04/30 06:28:08;;;;;;;;;;;13.00;99.90;;;;;;5111380;28;20468;-71
2022/04/30 06:30:35;;;;;;;;;;;13.10;99.90;;;;;;5111334;28;20353;-71
2022/04/30 06:33:01;;;;;;;;;;;13.20;99.90;;;;;;5093049;28;20359;-71
2022/04/30 06:35:26;;;;;;;;;;;13.40;99.90;;;;;;5111202;28;19947;-72
2022/04/30 06:37:52;;;;;;;;;;;13.60;99.90;;;;;;5111293;28;20189;-71
2022/04/30 06:40:17;;;;;;;;;;;13.70;99.90;;;;;;5111343;28;19908;-72
2022/04/30 06:42:44;;;;;;;;;;;13.70;99.90;;;;;;5092955;28;20375;-73
2022/04/30 06:45:10;;;;;;;;;;;13.80;99.90;;;;;;5111288;28;19911;-72
2022/04/30 06:47:36;;;;;;;;;;;13.80;99.90;;;;;;5111318;28;19915;-72
2022/04/30 06:50:02;;;;;;;;;;;13.80;99.90;;;;;;5111268;28;19912;-72
2022/04/30 06:52:28;;;;;;;;;;;13.80;99.90;;;;;;5111728;28;19927;-71
2022/04/30 06:57:38;;;;;;;;;;;13.80;99.90;;;;;;5111121;28;20398;-72
2022/04/30 07:01:25;;;;;;;;;;;13.80;99.90;;;;;;5111108;28;19939;-72
2022/04/30 07:02:55;;;;;;;;;;;13.80;99.90;;;;;;5110898;28;20002;-72
2022/04/30 07:05:20;;;;;;;;;;;13.80;99.90;;;;;;5092600;28;20379;-71
2022/04/30 07:07:46;;;;;;;;;;;13.90;99.90;;;;;;5110753;28;19942;-72
2022/04/30 07:10:11;;;;;;;;;;;13.90;99.90;;;;;;5110961;28;19961;-72
2022/04/30 07:12:37;;;;;;;;;;;14.10;99.90;;;;;;5111626;28;19915;-72
2022/04/30 07:15:02;;;;;;;;;;;14.20;99.90;;;;;;5096273;28;19927;-72
2022/04/30 07:17:28;;;;;;;;;;;14.50;99.90;;;;;;5115034;28;19922;-72
2022/04/30 07:19:53;;;;;;;;;;;14.60;99.90;;;;;;5096350;28;19908;-72
2022/04/30 07:22:19;;;;;;;;;;;14.60;99.00;;;;;;5115058;28;19915;-71
2022/04/30 07:24:44;;;;;;;;;;;14.70;99.50;;;;;;5096354;28;19937;-72
2022/04/30 07:27:10;;;;;;;;;;;14.70;98.90;;;;;;5114788;28;20024;-72
2022/04/30 07:29:38;;;;;;;;;;;15.00;99.30;;;;;;5114591;28;19961;-72
2022/04/30 07:32:07;;;;;;;;;;;15.60;99.10;;;;;;5114765;28;20402;-72
2022/04/30 07:34:33;;;;;;;;;;;16.00;97.80;;;;;;5114293;28;19912;-72
2022/04/30 07:36:59;;;;;;;;;;;16.20;97.00;;;;;;5114088;28;20368;-72
2022/04/30 07:39:24;;;;;;;;;;;16.40;96.30;;;;;;5096061;28;19915;-72
2022/04/30 07:41:50;;;;;;;;;;;16.70;96.50;;;;;;5095686;28;19915;-71
2022/04/30 07:44:16;;;;;;;;;;;16.90;95.60;;;;;;5114298;28;20014;-72
2022/04/30 07:46:42;;;;;;;;;;;17.20;95.10;;;;;;5114368;28;20021;-72
2022/04/30 07:49:07;;;;;;;;;;;17.40;94.30;;;;;;5114002;28;19912;-70
2022/04/30 07:51:42;;;;;;;;;;;17.50;94.00;;;;;;5114233;28;20395;-70
2022/04/30 07:54:08;;;;;;;;;;;17.60;94.20;;;;;;5095634;28;19918;-70
2022/04/30 07:56:34;;;;;;;;;;;17.50;94.00;;;;;;5114066;28;19954;-70
2022/04/30 07:58:59;;;;;;;;;;;17.60;94.10;;;;;;5113811;28;19908;-70
2022/04/30 08:01:25;;;;;;;;;;;17.70;93.80;;;;;;5113929;28;19922;-69
2022/04/30 08:03:50;;;;;;;;;;;17.80;94.30;;;;;;5113583;28;19914;-69
2022/04/30 08:06:16;;;;;;;;;;;18.10;94.20;;;;;;5113899;28;19961;-70
2022/04/30 08:08:42;;;;;;;;;;;18.10;93.70;;;;;;5113625;28;19908;-71
2022/04/30 08:11:07;;;;;;;;;;;18.40;93.90;;;;;;5113469;28;20208;-70
2022/04/30 08:13:33;;;;;;;;;;;18.50;93.40;;;;;;5113422;28;20053;-71
2022/04/30 08:15:58;;;;;;;;;;;18.60;93.00;;;;;;5113699;28;19931;-71
2022/04/30 08:18:26;;;;;;;;;;;18.80;92.70;;;;;;5113457;28;19941;-72
2022/04/30 08:20:52;;;;;;;;;;;18.90;93.50;;;;;;5095173;28;20004;-72
2022/04/30 08:23:18;;;;;;;;;;;18.90;92.90;;;;;;5095067;28;19950;-72
2022/04/30 08:25:44;;;;;;;;;;;18.80;93.10;;;;;;5114542;28;20422;-72
2022/04/30 08:28:09;;;;;;;;;;;18.90;92.50;;;;;;5113290;28;19908;-72
2022/04/30 08:30:35;;;;;;;;;;;19.10;91.70;;;;;;5113155;28;19929;-72
2022/04/30 08:33:00;;;;;;;;;;;19.20;91.30;;;;;;5113170;28;20363;-73
2022/04/30 08:35:26;;;;;;;;;;;19.40;91.20;;;;;;5112791;28;19954;-71
2022/04/30 08:37:51;;;;;;;;;;;19.30;90.20;;;;;;5094473;28;19911;-72
2022/04/30 08:40:17;;;;;;;;;;;18.90;90.30;;;;;;5113023;28;19911;-71
2022/04/30 08:42:42;;;;;;;;;;;18.20;90.80;;;;;;5094716;28;19907;-71
2022/04/30 08:45:09;;;;;;;;;;;17.70;90.70;;;;;;5094572;28;19907;-71
2022/04/30 08:47:38;;;;;;;;;;;17.30;91.50;;;;;;5113362;28;19962;-73
2022/04/30 08:50:06;;;;;;;;;;;16.80;92.30;;;;;;5094785;28;19907;-72
2022/04/30 08:52:32;;;;;;;;;;;16.60;92.90;;;;;;5113374;28;19928;-71
2022/04/30 08:54:58;;;;;;;;;;;16.40;92.50;;;;;;5094278;28;20258;-70
2022/04/30 08:57:24;;;;;;;;;;;16.80;92.30;;;;;;5113239;28;19916;-70
2022/04/30 08:59:50;;;;;;;;;;;17.50;91.40;;;;;;5112576;28;20394;-70
2022/04/30 09:02:16;;;;;;;;;;;18.30;90.80;;;;;;5113122;28;19916;-70
2022/04/30 09:04:45;;;;;;;;;;;19.20;89.10;;;;;;5112489;28;19908;-71
2022/04/30 09:07:12;;;;;;;;;;;19.40;85.30;;;;;;5112971;28;20224;-71
2022/04/30 09:09:37;;;;;;;;;;;19.40;84.30;;;;;;5094183;28;19908;-71
2022/04/30 09:12:10;;;;;;;;;;;19.20;85.40;;;;;;5112537;28;19927;-73
2022/04/30 09:14:42;;;;;;;;;;;18.70;84.60;;;;;;5112528;28;20326;-73
2022/04/30 09:17:12;;;;;;;;;;;18.30;85.20;;;;;;5112677;28;19915;-71
2022/04/30 09:19:47;;;;;;;;;;;18.30;86.90;;;;;;5112623;28;19939;-72
2022/04/30 09:22:14;;;;;;;;;;;18.90;85.30;;;;;;5112689;28;19919;-71
2022/04/30 09:24:49;;;;;;;;;;;19.60;83.20;;;;;;5112235;28;20393;-71
2022/04/30 09:27:15;;;;;;;;;;;20.10;81.80;;;;;;5112513;28;19977;-71
2022/04/30 09:29:41;;;;;;;;;;;20.10;80.80;;;;;;5112394;28;19907;-72
2022/04/30 09:32:07;;;;;;;;;;;19.70;79.70;;;;;;5093824;28;19923;-71
2022/04/30 09:37:48;;;;;;;;;;;18.90;80.30;;;;;;5112678;28;19923;-72
2022/04/30 09:40:16;;;;;;;;;;;18.60;80.10;;;;;;5112137;28;19933;-72
2022/04/30 09:42:42;;;;;;;;;;;18.00;79.90;;;;;;5111877;28;19908;-72
2022/04/30 09:45:09;;;;;;;;;;;17.60;81.00;;;;;;5111722;28;20424;-73
2022/04/30 09:47:35;;;;;;;;;;;17.30;82.20;;;;;;5093529;28;19923;-73
2022/04/30 09:55:33;;;;;;;;;;;17.40;76.70;;;;;;5111869;28;20017;-72
2022/04/30 09:58:03;;;;;;;;;;;17.50;76.90;;;;;;5111706;28;19955;-71
2022/04/30 10:00:31;;;;;;;;;;;17.80;78.10;;;;;;5111474;28;19908;-69
2022/04/30 10:02:58;;;;;;;;;;;18.40;75.50;;;;;;5111542;28;19912;-70
2022/04/30 10:05:24;;;;;;;;;;;18.90;72.70;;;;;;5093138;28;20037;-69
2022/04/30 10:07:50;;;;;;;;;;;19.50;72.50;;;;;;5111618;28;19939;-69
2022/04/30 10:10:15;;;;;;;;;;;19.60;71.80;;;;;;5111514;28;19911;-70
2022/04/30 10:12:44;;;;;;;;;;;19.70;69.70;;;;;;5111370;28;19923;-71
2022/04/30 10:15:22;;;;;;;;;;;19.40;70.30;;;;;;5111279;28;19962;-72
2022/04/30 10:18:02;;;;;;;;;;;18.80;71.20;;;;;;5088540;28;19913;-72
2022/04/30 10:20:32;;;;;;;;;;;18.20;72.20;;;;;;5088882;28;19934;-72
2022/04/30 10:22:59;;;;;;;;;;;17.90;73.00;;;;;;5089181;28;19916;-72
2022/04/30 10:25:32;;;;;;;;;;;17.50;72.70;;;;;;5088491;28;19954;-72
2022/04/30 10:27:57;;;;;;;;;;;17.40;72.80;;;;;;5088348;28;19916;-73
2022/04/30 10:30:24;;;;;;;;;;;17.30;73.20;;;;;;5088416;28;19939;-72
2022/04/30 10:33:00;;;;;;;;;;;16.90;73.10;;;;;;5088985;28;19947;-73
2022/04/30 10:35:33;;;;;;;;;;;16.60;73.70;;;;;;5087099;28;19915;-72
2022/04/30 10:38:09;;;;;;;;;;;16.50;73.90;;;;;;5088319;28;19921;-72
2022/04/30 10:40:57;;;;;;;;;;;16.40;74.10;;;;;;5088240;28;19916;-71
2022/04/30 10:43:27;;;;;;;;;;;16.30;73.90;;;;;;5088334;28;19999;-71
2022/04/30 10:45:55;;;;;;;;;;;16.30;74.20;;;;;;5088277;28;19942;-72
2022/04/30 10:48:20;;;;;;;;;;;16.20;74.20;;;;;;5088148;28;20247;-72
2022/04/30 10:51:00;;;;;;;;;;;16.10;74.30;;;;;;5086715;28;19923;-72
2022/04/30 10:53:27;;;;;;;;;;;16.00;75.00;;;;;;5088055;28;19912;-72
2022/04/30 10:55:52;;;;;;;;;;;16.00;75.20;;;;;;5087880;28;19966;-72
2022/04/30 10:58:25;;;;;;;;;;;15.90;74.60;;;;;;5086629;28;19916;-72
2022/04/30 11:00:51;;;;;;;;;;;15.80;75.30;;;;;;5086526;28;20368;-72
2022/04/30 11:03:17;;;;;;;;;;;15.80;75.50;;;;;;5086849;28;19991;-72
2022/04/30 11:05:43;;;;;;;;;;;15.80;75.60;;;;;;5087751;28;20287;-72
2022/04/30 11:08:09;;;;;;;;;;;15.70;75.80;;;;;;5087854;28;19999;-73
2022/04/30 11:10:34;;;;;;;;;;;15.70;76.80;;;;;;5086170;28;19943;-72
2022/04/30 11:13:04;;;;;;;;;;;15.60;77.80;;;;;;5086207;28;19915;-72
2022/04/30 11:15:29;;;;;;;;;;;15.60;78.80;;;;;;5087461;28;19908;-72
2022/04/30 11:17:57;;;;;;;;;;;15.70;78.90;;;;;;5107122;28;19931;-73
2022/04/30 11:20:23;;;;;;;;;;;15.80;80.00;;;;;;5107775;28;19993;-72
2022/04/30 11:22:52;;;;;;;;;;;15.80;79.20;;;;;;5108276;28;19923;-72
2022/04/30 11:25:18;;;;;;;;;;;15.90;78.90;;;;;;5108369;28;20267;-72
2022/04/30 11:27:43;;;;;;;;;;;16.00;79.80;;;;;;5104083;28;19970;-72
2022/04/30 11:30:09;;;;;;;;;;;16.10;78.20;;;;;;5094086;28;19945;-72
2022/04/30 11:32:35;;;;;;;;;;;16.20;77.50;;;;;;5093985;28;19945;-72
2022/04/30 11:35:01;;;;;;;;;;;16.20;77.10;;;;;;5092626;28;19989;-72
2022/04/30 11:37:27;;;;;;;;;;;16.20;76.90;;;;;;5092669;28;19924;-72
2022/04/30 11:39:53;;;;;;;;;;;16.30;76.80;;;;;;5092611;28;20275;-72
2022/04/30 11:42:23;;;;;;;;;;;16.30;76.10;;;;;;5093658;28;19916;-73
2022/04/30 11:44:52;;;;;;;;;;;16.40;76.70;;;;;;5093825;28;20457;-72
2022/04/30 11:47:20;;;;;;;;;;;16.50;76.50;;;;;;5092434;28;20011;-73
2022/04/30 11:49:45;;;;;;;;;;;16.40;76.40;;;;;;5093820;28;20006;-72
2022/04/30 11:52:13;;;;;;;;;;;16.30;77.00;;;;;;5094037;28;20011;-72
2022/04/30 11:54:39;;;;;;;;;;;16.20;76.50;;;;;;5093787;28;19915;-72
2022/04/30 11:57:05;;;;;;;;;;;16.10;77.40;;;;;;5093982;28;19928;-73
2022/04/30 11:59:31;;;;;;;;;;;16.00;77.30;;;;;;5094045;28;19976;-72
2022/04/30 12:02:01;;;;;;;;;;;16.00;77.20;;;;;;5093788;28;19923;-72
2022/04/30 12:04:30;;;;;;;;;;;16.00;76.90;;;;;;5093614;28;19943;-73
2022/04/30 12:06:59;;;;;;;;;;;16.00;76.90;;;;;;5093580;28;20021;-73
2022/04/30 12:09:28;;;;;;;;;;;16.00;77.50;;;;;;5093593;28;19955;-72
2022/04/30 12:11:53;;;;;;;;;;;16.10;77.00;;;;;;5093426;28;20015;-72
2022/04/30 12:14:19;;;;;;;;;;;16.10;77.20;;;;;;5093354;28;20007;-72
2022/04/30 12:16:45;;;;;;;;;;;16.20;78.40;;;;;;5092952;28;20006;-72
2022/04/30 12:25:15;;;;;;;;;;;17.20;76.30;;;;;;5092386;28;19915;-73
2022/04/30 12:27:41;;;;;;;;;;;17.50;73.70;;;;;;5091927;28;19916;-73
2022/04/30 12:30:17;;;;;;;;;;;17.60;73.80;;;;;;5092986;28;19908;-72
2022/04/30 12:32:48;;;;;;;;;;;17.50;73.90;;;;;;5093444;28;20011;-73
2022/04/30 12:35:15;;;;;;;;;;;17.40;74.40;;;;;;5093001;28;20367;-73
2022/04/30 12:37:41;;;;;;;;;;;17.20;74.20;;;;;;5093226;28;19920;-72
2022/04/30 12:40:06;;;;;;;;;;;17.00;73.50;;;;;;5091927;28;19912;-73
2022/04/30 12:42:32;;;;;;;;;;;16.90;73.40;;;;;;5093185;28;19916;-73
2022/04/30 12:44:58;;;;;;;;;;;16.70;73.90;;;;;;5092813;28;19914;-72
2022/04/30 12:47:23;;;;;;;;;;;16.70;75.00;;;;;;5093018;28;20349;-72
2022/04/30 12:49:49;;;;;;;;;;;16.60;74.10;;;;;;5091271;28;20436;-72
2022/04/30 12:52:15;;;;;;;;;;;16.50;74.70;;;;;;5092958;28;19951;-72
2022/04/30 12:54:41;;;;;;;;;;;16.40;75.00;;;;;;5092960;28;19920;-72
2022/04/30 12:57:07;;;;;;;;;;;16.40;75.30;;;;;;5092771;28;19923;-72
2022/04/30 12:59:33;;;;;;;;;;;16.30;74.80;;;;;;5092528;28;19915;-72
2022/04/30 13:01:59;;;;;;;;;;;16.30;74.90;;;;;;5092350;28;19916;-72
2022/04/30 13:04:24;;;;;;;;;;;16.20;74.20;;;;;;5092569;28;20016;-72
2022/04/30 13:06:49;;;;;;;;;;;16.30;74.60;;;;;;5092657;28;20368;-73
2022/04/30 13:14:45;;;;;;;;;;;16.30;75.30;;;;;;5092444;28;20395;-73
2022/04/30 13:17:11;;;;;;;;;;;16.50;75.40;;;;;;5091828;28;19931;-72
2022/04/30 13:19:39;;;;;;;;;;;16.60;74.70;;;;;;5092044;28;19931;-72
2022/04/30 13:22:05;;;;;;;;;;;16.80;75.20;;;;;;5092179;28;19920;-72
2022/04/30 13:24:30;;;;;;;;;;;16.90;74.20;;;;;;5092243;28;19908;-72
2022/04/30 13:26:57;;;;;;;;;;;17.00;73.90;;;;;;5091935;28;19923;-72
2022/04/30 13:29:22;;;;;;;;;;;17.10;73.70;;;;;;5090680;28;19962;-72
2022/04/30 13:31:48;;;;;;;;;;;17.10;72.10;;;;;;5092152;28;19920;-72
2022/04/30 13:34:14;;;;;;;;;;;17.10;71.40;;;;;;5091673;28;20003;-73
2022/04/30 13:36:40;;;;;;;;;;;17.10;71.30;;;;;;5091939;28;19931;-73
2022/04/30 13:39:06;;;;;;;;;;;16.90;70.30;;;;;;5091730;28;19908;-72
2022/04/30 13:41:31;;;;;;;;;;;16.80;70.50;;;;;;5090644;28;20352;-73
2022/04/30 13:43:57;;;;;;;;;;;16.80;70.70;;;;;;5091713;28;20003;-72
2022/04/30 13:46:23;;;;;;;;;;;16.70;71.60;;;;;;5092003;28;19931;-72
2022/04/30 13:48:51;;;;;;;;;;;16.60;73.00;;;;;;5091725;28;19908;-73
2022/04/30 13:51:17;;;;;;;;;;;16.60;72.50;;;;;;5091709;28;19916;-73
2022/04/30 13:53:42;;;;;;;;;;;16.60;72.30;;;;;;5090257;28;19916;-72
2022/04/30 13:56:08;;;;;;;;;;;16.70;73.70;;;;;;5091901;28;19920;-72
2022/04/30 13:58:33;;;;;;;;;;;16.60;73.30;;;;;;5091542;28;19971;-72
2022/04/30 14:00:59;;;;;;;;;;;16.30;73.10;;;;;;5091534;28;19920;-74
2022/04/30 14:03:25;;;;;;;;;;;16.30;74.70;;;;;;5091495;28;19912;-73
2022/04/30 14:05:50;;;;;;;;;;;16.30;73.90;;;;;;5091384;28;21060;-71
2022/04/30 14:08:16;;;;;;;;;;;16.30;72.90;;;;;;5091150;28;19991;-71
2022/04/30 14:10:42;;;;;;;;;;;16.30;73.70;;;;;;5091305;28;19908;-71
2022/04/30 14:15:52;;;;;;;;;;;16.10;73.20;;;;;;5091027;28;19941;-72
2022/04/30 14:18:21;;;;;;;;;;;16.00;72.90;;;;;;5091254;28;19904;-72
2022/04/30 14:20:47;;;;;;;;;;;15.90;72.20;;;;;;5091118;28;19909;-72
2022/04/30 14:23:12;;;;;;;;;;;15.80;71.50;;;;;;5091153;28;19931;-72
2022/04/30 14:25:39;;;;;;;;;;;15.80;71.80;;;;;;5091226;28;19908;-73
2022/04/30 14:28:05;;;;;;;;;;;15.90;71.20;;;;;;5091170;28;19912;-72
2022/04/30 14:30:30;;;;;;;;;;;16.00;71.30;;;;;;5091212;28;20002;-73
2022/04/30 14:32:56;;;;;;;;;;;16.10;70.80;;;;;;5091761;28;20006;-73
2022/04/30 14:35:21;;;;;;;;;;;16.10;69.30;;;;;;5091107;28;19935;-73
2022/04/30 14:37:47;;;;;;;;;;;16.20;69.40;;;;;;5091549;28;19921;-73
2022/04/30 14:40:17;;;;;;;;;;;16.00;69.80;;;;;;5091118;28;19915;-72
2022/04/30 14:42:44;;;;;;;;;;;15.90;70.10;;;;;;5091610;28;19917;-72
2022/04/30 14:45:09;;;;;;;;;;;15.80;70.50;;;;;;5091014;28;19915;-73
2022/04/30 14:47:35;;;;;;;;;;;15.80;69.80;;;;;;5091536;28;19919;-73
2022/04/30 14:50:01;;;;;;;;;;;15.80;70.60;;;;;;5091038;28;19908;-73
2022/04/30 14:52:26;;;;;;;;;;;15.70;71.20;;;;;;5091637;28;19921;-73
2022/04/30 14:54:52;;;;;;;;;;;15.60;70.40;;;;;;5091230;28;19908;-73
2022/04/30 14:57:18;;;;;;;;;;;15.50;71.20;;;;;;5091267;28;19920;-73